createdAt,value
2022-11-01T00:01:56.513Z,60.92
2022-11-01T00:04:59.858Z,66.05
2022-11-01T00:08:03.436Z,70.00
2022-11-01T00:11:08.677Z,69.15
2022-11-01T00:14:14.422Z,70.15
2022-11-01T00:17:19.671Z,74.65
2022-11-01T00:20:23.028Z,73.18
2022-11-01T00:23:26.476Z,71.85
2022-11-01T00:26:30.255Z,70.72
2022-11-01T00:29:33.700Z,75.85
2022-11-01T00:32:38.450Z,69.25
2022-11-01T00:35:46.827Z,72.93
2022-11-01T00:38:51.545Z,68.20
2022-11-01T00:41:55.181Z,70.47
2022-11-01T00:44:59.791Z,73.90
2022-11-01T00:48:04.655Z,71.10
2022-11-01T00:51:08.087Z,69.03
2022-11-01T00:54:11.438Z,70.20
2022-11-01T00:57:14.698Z,67.10
2022-11-01T01:00:18.280Z,66.53
2022-11-01T01:03:23.067Z,66.75
2022-11-01T01:06:26.529Z,65.85
2022-11-01T01:09:29.773Z,66.18
2022-11-01T01:12:33.401Z,66.88
2022-11-01T01:15:36.663Z,68.18
2022-11-01T01:18:41.808Z,67.57
2022-11-01T01:21:45.012Z,66.90
2022-11-01T01:24:48.220Z,66.95
2022-11-01T01:27:51.437Z,67.97
2022-11-01T01:30:55.226Z,69.50
2022-11-01T01:34:00.142Z,69.00
2022-11-01T01:37:03.724Z,67.30
2022-11-01T01:40:08.941Z,66.85
2022-11-01T01:43:13.538Z,66.10
2022-11-01T01:46:16.936Z,63.97
2022-11-01T01:49:21.579Z,67.05
2022-11-01T01:52:25.639Z,61.47
2022-11-01T01:55:38.293Z,63.40
2022-11-01T01:58:45.097Z,61.72
2022-11-01T02:01:48.433Z,60.05
2022-11-01T02:04:58.345Z,60.88
2022-11-01T02:08:02.647Z,59.15
2022-11-01T02:11:08.428Z,57.15
2022-11-01T02:14:11.909Z,61.15
2022-11-01T02:17:23.769Z,57.85
2022-11-01T02:21:14.127Z,59.33
2022-11-01T02:25:10.146Z,60.28
2022-11-01T02:28:34.628Z,58.92
2022-11-01T02:32:04.867Z,69.95
2022-11-01T02:35:17.079Z,59.03
2022-11-01T02:38:32.196Z,65.57
2022-11-01T02:41:41.617Z,69.10
2022-11-01T02:44:50.243Z,48.63
2022-11-01T02:47:53.532Z,64.93
2022-11-01T02:50:59.815Z,59.45
2022-11-01T02:54:03.421Z,60.15
2022-11-01T02:57:17.996Z,60.58
2022-11-01T03:00:23.514Z,60.15
2022-11-01T03:03:30.559Z,58.05
2022-11-01T03:06:40.042Z,56.78
2022-11-01T03:09:44.231Z,62.30
2022-11-01T03:13:00.114Z,55.10
2022-11-01T03:16:13.527Z,58.83
2022-11-01T03:19:31.610Z,57.75
2022-11-01T03:22:43.842Z,53.83
2022-11-01T03:25:51.881Z,54.53
2022-11-01T03:28:59.032Z,51.95
2022-11-01T03:32:04.093Z,51.20
2022-11-01T03:35:10.041Z,47.13
2022-11-01T03:38:18.191Z,49.65
2022-11-01T03:41:23.868Z,52.13
2022-11-01T03:44:28.296Z,51.65
2022-11-01T03:47:31.740Z,52.45
2022-11-01T03:50:35.776Z,52.00
2022-11-01T03:53:40.422Z,52.45
2022-11-01T03:56:44.080Z,55.70
2022-11-01T03:59:47.468Z,56.15
2022-11-01T04:02:51.597Z,51.60
2022-11-01T04:05:54.990Z,48.33
2022-11-01T04:08:59.695Z,46.67
2022-11-01T04:12:02.968Z,49.15
2022-11-01T04:15:24.158Z,48.65
2022-11-01T04:18:47.283Z,48.83
2022-11-01T04:22:10.105Z,49.50
2022-11-01T04:25:19.341Z,52.40
2022-11-01T04:28:23.737Z,52.78
2022-11-01T04:31:29.744Z,53.17
2022-11-01T04:34:45.746Z,63.67
2022-11-01T04:37:49.322Z,54.15
2022-11-01T04:40:54.204Z,53.85
2022-11-01T04:43:59.463Z,56.17
2022-11-01T04:47:02.920Z,50.83
2022-11-01T04:50:07.257Z,51.30
2022-11-01T04:53:11.171Z,48.80
2022-11-01T04:56:15.804Z,52.83
2022-11-01T04:59:19.040Z,49.85
2022-11-01T05:02:24.538Z,50.83
2022-11-01T05:05:28.296Z,50.45
2022-11-01T05:08:32.227Z,47.53
2022-11-01T05:11:36.995Z,52.20
2022-11-01T05:14:40.279Z,51.95
2022-11-01T05:17:43.692Z,50.80
2022-11-01T05:20:46.957Z,54.60
2022-11-01T05:23:50.503Z,51.97
2022-11-01T05:26:55.165Z,51.75
2022-11-01T05:29:58.437Z,49.95
2022-11-01T05:33:02.997Z,50.20
2022-11-01T05:36:07.504Z,46.85
2022-11-01T05:39:10.955Z,47.03
2022-11-01T05:42:15.869Z,50.28
2022-11-01T05:45:19.127Z,49.70
2022-11-01T05:48:22.527Z,46.50
2022-11-01T05:51:25.962Z,45.67
2022-11-01T05:54:29.222Z,45.42
2022-11-01T05:57:34.030Z,41.47
2022-11-01T06:00:37.461Z,46.03
2022-11-01T06:03:40.802Z,44.85
2022-11-01T06:06:44.141Z,42.78
2022-11-01T06:09:47.404Z,41.50
2022-11-01T06:12:52.349Z,41.83
2022-11-01T06:15:59.470Z,40.60
2022-11-01T06:19:02.731Z,39.45
2022-11-01T06:22:06.187Z,39.35
2022-11-01T06:25:10.029Z,39.80
2022-11-01T06:28:14.660Z,38.90
2022-11-01T06:31:17.856Z,37.78
2022-11-01T06:34:21.190Z,38.63
2022-11-01T06:37:24.464Z,36.17
2022-11-01T06:40:27.747Z,38.45
2022-11-01T06:43:32.327Z,36.05
2022-11-01T06:46:35.746Z,37.95
2022-11-01T06:49:39.014Z,36.42
2022-11-01T06:52:42.639Z,37.45
2022-11-01T06:55:45.971Z,46.60
2022-11-01T06:58:51.399Z,35.72
2022-11-01T07:01:55.485Z,36.47
2022-11-01T07:04:58.922Z,36.17
2022-11-01T07:08:04.427Z,34.95
2022-11-01T07:11:07.965Z,35.20
2022-11-01T07:14:13.022Z,37.55
2022-11-01T07:17:16.412Z,38.85
2022-11-01T07:20:19.885Z,34.22
2022-11-01T07:23:24.236Z,33.63
2022-11-01T07:26:27.603Z,33.90
2022-11-01T07:29:32.578Z,31.45
2022-11-01T07:32:39.003Z,31.17
2022-11-01T07:35:43.228Z,28.58
2022-11-01T07:38:46.630Z,29.65
2022-11-01T07:41:51.365Z,29.48
2022-11-01T07:44:56.202Z,27.20
2022-11-01T07:48:03.481Z,59.42
2022-11-01T07:51:09.563Z,26.80
2022-11-01T07:54:13.688Z,138.07
2022-11-01T07:57:17.591Z,27.85
2022-11-01T08:00:22.778Z,23.25
2022-11-01T08:03:26.276Z,24.00
2022-11-01T08:06:29.499Z,22.92
2022-11-01T08:09:32.989Z,22.98
2022-11-01T08:12:38.250Z,22.75
2022-11-01T08:15:43.147Z,22.58
2022-11-01T08:18:46.396Z,22.35
2022-11-01T08:21:50.984Z,22.05
2022-11-01T08:24:54.339Z,23.05
2022-11-01T08:28:02.574Z,23.50
2022-11-01T08:31:09.590Z,23.80
2022-11-01T08:34:15.982Z,22.48
2022-11-01T08:37:20.256Z,23.23
2022-11-01T08:40:24.540Z,22.83
2022-11-01T08:43:27.968Z,23.05
2022-11-01T08:46:32.891Z,22.48
2022-11-01T08:49:36.472Z,21.55
2022-11-01T08:52:39.769Z,22.50
2022-11-01T08:55:43.372Z,23.02
2022-11-01T08:58:49.385Z,23.05
2022-11-01T09:01:54.180Z,23.42
2022-11-01T09:04:57.682Z,22.98
2022-11-01T09:08:02.396Z,21.42
2022-11-01T09:11:07.211Z,21.13
2022-11-01T09:14:10.756Z,19.85
2022-11-01T09:17:15.791Z,19.35
2022-11-01T09:20:19.566Z,18.75
2022-11-01T09:23:23.261Z,18.65
2022-11-01T09:26:29.866Z,18.65
2022-11-01T09:32:50.616Z,21.08
2022-11-01T09:35:59.829Z,16.95
2022-11-01T09:39:05.148Z,18.48
2022-11-01T09:42:16.281Z,17.83
2022-11-01T09:45:22.775Z,16.77
2022-11-01T09:48:28.779Z,16.15
2022-11-01T09:51:32.442Z,17.00
2022-11-01T09:54:35.940Z,17.45
2022-11-01T09:57:46.113Z,16.50
2022-11-01T10:01:01.080Z,16.58
2022-11-01T10:04:36.934Z,15.23
2022-11-01T10:07:48.869Z,14.95
2022-11-01T10:11:12.208Z,15.95
2022-11-01T10:14:26.942Z,15.80
2022-11-01T10:17:52.063Z,16.85
2022-11-01T10:20:59.370Z,19.38
2022-11-01T10:24:06.145Z,16.30
2022-11-01T10:27:16.702Z,16.50
2022-11-01T10:30:20.970Z,15.20
2022-11-01T10:33:29.641Z,15.35
2022-11-01T10:36:39.444Z,15.38
2022-11-01T10:39:55.030Z,15.05
2022-11-01T10:43:00.138Z,15.32
2022-11-01T10:46:07.153Z,15.30
2022-11-01T10:49:20.269Z,16.35
2022-11-01T10:52:28.178Z,15.25
2022-11-01T10:55:39.067Z,16.05
2022-11-01T10:58:47.822Z,14.93
2022-11-01T11:01:53.216Z,14.32
2022-11-01T11:04:57.631Z,14.38
2022-11-01T11:08:07.381Z,15.35
2022-11-01T11:11:15.405Z,14.63
2022-11-01T11:14:21.291Z,13.77
2022-11-01T11:17:29.637Z,14.23
2022-11-01T11:20:34.929Z,14.35
2022-11-01T11:23:44.537Z,13.10
2022-11-01T11:26:53.105Z,14.25
2022-11-01T11:30:03.066Z,12.57
2022-11-01T11:33:07.071Z,12.82
2022-11-01T11:36:11.385Z,12.43
2022-11-01T11:39:27.111Z,11.98
2022-11-01T11:42:33.093Z,12.13
2022-11-01T11:45:36.910Z,12.40
2022-11-01T11:48:56.074Z,13.20
2022-11-01T11:52:02.788Z,12.93
2022-11-01T11:55:27.826Z,12.98
2022-11-01T11:58:35.936Z,13.07
2022-11-01T12:01:39.711Z,14.57
2022-11-01T12:04:49.448Z,13.43
2022-11-01T12:07:55.551Z,13.02
2022-11-01T12:11:00.903Z,12.57
2022-11-01T12:14:08.622Z,13.18
2022-11-01T12:17:26.664Z,12.95
2022-11-01T12:20:38.575Z,12.70
2022-11-01T12:23:42.924Z,13.48
2022-11-01T12:26:49.707Z,33.63
2022-11-01T12:29:56.348Z,51.90
2022-11-01T12:33:02.759Z,14.38
2022-11-01T12:36:08.992Z,14.30
2022-11-01T12:39:25.753Z,13.82
2022-11-01T12:42:33.989Z,14.00
2022-11-01T12:45:47.245Z,21.10
2022-11-01T12:48:56.073Z,13.77
2022-11-01T12:55:20.680Z,13.32
2022-11-01T12:58:28.795Z,12.85
2022-11-01T13:01:41.791Z,11.80
2022-11-01T13:04:54.206Z,12.05
2022-11-01T13:08:10.156Z,16.15
2022-11-01T13:11:20.081Z,11.98
2022-11-01T13:14:44.883Z,12.30
2022-11-01T13:17:55.706Z,11.55
2022-11-01T13:21:05.809Z,10.45
2022-11-01T13:24:21.275Z,10.82
2022-11-01T13:27:30.870Z,11.43
2022-11-01T13:30:40.366Z,11.77
2022-11-01T13:33:49.990Z,7.95
2022-11-01T13:37:01.669Z,7.93
2022-11-01T13:40:18.530Z,10.77
2022-11-01T13:43:25.150Z,10.38
2022-11-01T13:46:52.523Z,10.48
2022-11-01T13:50:30.027Z,9.82
2022-11-01T13:53:38.085Z,9.50
2022-11-01T13:56:44.160Z,9.93
2022-11-01T13:59:55.759Z,9.88
2022-11-01T14:03:01.255Z,9.52
2022-11-01T14:09:33.669Z,9.65
2022-11-01T14:12:43.438Z,9.15
2022-11-01T14:16:05.661Z,9.18
2022-11-01T14:19:27.258Z,9.35
2022-11-01T14:22:33.561Z,9.00
2022-11-01T14:25:37.053Z,9.65
2022-11-01T14:28:45.308Z,10.68
2022-11-01T14:31:52.587Z,11.38
2022-11-01T14:35:08.706Z,11.65
2022-11-01T14:38:15.862Z,10.90
2022-11-01T14:41:20.595Z,11.38
2022-11-01T14:44:31.161Z,11.55
2022-11-01T14:47:38.613Z,11.40
2022-11-01T14:50:50.458Z,12.77
2022-11-01T14:53:59.913Z,17.40
2022-11-01T14:57:04.055Z,16.27
2022-11-01T15:00:23.601Z,20.88
2022-11-01T15:03:27.068Z,27.93
2022-11-01T15:06:32.415Z,32.60
2022-11-01T15:09:35.794Z,21.98
2022-11-01T15:12:47.915Z,17.33
2022-11-01T15:15:59.385Z,18.00
2022-11-01T15:19:06.657Z,16.77
2022-11-01T15:22:17.979Z,20.20
2022-11-01T15:25:23.696Z,20.58
2022-11-01T15:28:31.544Z,22.58
2022-11-01T15:31:35.802Z,23.00
2022-11-01T15:34:39.366Z,22.13
2022-11-01T15:37:49.918Z,21.50
2022-11-01T15:40:55.489Z,21.52
2022-11-01T15:44:02.233Z,20.00
2022-11-01T15:47:07.163Z,26.48
2022-11-01T15:50:12.433Z,24.50
2022-11-01T15:53:22.228Z,29.73
2022-11-01T15:56:33.346Z,29.13
2022-11-01T15:59:43.991Z,28.70
2022-11-01T16:02:50.127Z,26.73
2022-11-01T16:05:56.984Z,29.48
2022-11-01T16:09:08.159Z,25.20
2022-11-01T16:12:18.486Z,25.92
2022-11-01T16:18:26.715Z,25.80
2022-11-01T16:21:31.683Z,29.73
2022-11-01T16:24:36.444Z,26.85
2022-11-01T16:27:57.302Z,30.27
2022-11-01T16:31:00.985Z,24.40
2022-11-01T16:34:04.381Z,25.48
2022-11-01T16:37:20.521Z,40.08
2022-11-01T16:40:27.376Z,34.40
2022-11-01T16:43:33.853Z,32.28
2022-11-01T16:46:37.682Z,34.38
2022-11-01T16:49:47.158Z,33.92
2022-11-01T16:52:50.647Z,36.07
2022-11-01T16:56:34.555Z,45.42
2022-11-01T16:59:36.846Z,57.88
2022-11-01T17:02:41.106Z,43.75
2022-11-01T17:05:44.582Z,78.88
2022-11-01T17:08:48.154Z,55.13
2022-11-01T17:11:54.467Z,53.05
2022-11-01T17:14:57.951Z,54.10
2022-11-01T17:18:06.549Z,53.72
2022-11-01T17:21:11.702Z,56.65
2022-11-01T17:24:19.657Z,79.55
2022-11-01T17:27:24.616Z,83.13
2022-11-01T17:30:31.690Z,77.97
2022-11-01T17:33:35.028Z,72.78
2022-11-01T17:36:42.197Z,73.53
2022-11-01T17:39:45.694Z,78.50
2022-11-01T17:42:50.431Z,77.20
2022-11-01T17:45:54.900Z,64.00
2022-11-01T17:48:58.747Z,59.90
2022-11-01T17:52:08.684Z,60.88
2022-11-01T17:55:13.749Z,54.70
2022-11-01T17:58:18.607Z,56.03
2022-11-01T18:01:23.220Z,56.90
2022-11-01T18:04:34.089Z,55.60
2022-11-01T18:07:41.605Z,68.60
2022-11-01T18:11:02.641Z,58.00
2022-11-01T18:14:15.246Z,58.25
2022-11-01T18:17:32.465Z,56.78
2022-11-01T18:20:46.081Z,54.17
2022-11-01T18:23:52.468Z,51.97
2022-11-01T18:26:58.647Z,52.65
2022-11-01T18:30:09.944Z,57.38
2022-11-01T18:33:21.184Z,56.08
2022-11-01T18:36:31.201Z,58.22
2022-11-01T18:39:40.763Z,60.65
2022-11-01T18:42:48.418Z,42.97
2022-11-01T18:46:23.394Z,63.42
2022-11-01T18:49:18.831Z,71.05
2022-11-01T18:52:23.433Z,74.85
2022-11-01T18:55:26.928Z,77.32
2022-11-01T18:58:30.393Z,66.28
2022-11-01T19:01:36.665Z,66.95
2022-11-01T19:04:42.523Z,66.43
2022-11-01T19:08:10.188Z,61.28
2022-11-01T19:11:17.400Z,58.85
2022-11-01T19:14:23.479Z,54.90
2022-11-01T19:17:30.985Z,56.90
2022-11-01T19:20:36.531Z,53.63
2022-11-01T19:23:45.190Z,54.42
2022-11-01T19:26:48.527Z,50.85
2022-11-01T19:29:57.690Z,53.60
2022-11-01T19:33:16.250Z,43.23
2022-11-01T19:36:21.532Z,56.35
2022-11-01T19:39:28.693Z,54.75
2022-11-01T19:42:34.389Z,53.47
2022-11-01T19:45:42.790Z,52.47
2022-11-01T19:48:49.277Z,50.60
2022-11-01T19:52:03.788Z,47.78
2022-11-01T19:55:34.558Z,49.25
2022-11-01T19:58:45.055Z,49.28
2022-11-01T20:01:50.326Z,47.42
2022-11-01T20:05:01.249Z,48.10
2022-11-01T20:08:15.929Z,50.25
2022-11-01T20:11:20.692Z,47.60
2022-11-01T20:14:25.567Z,46.63
2022-11-01T20:17:31.938Z,47.90
2022-11-01T20:20:37.304Z,49.30
2022-11-01T20:23:43.498Z,48.08
2022-11-01T20:26:47.273Z,48.90
2022-11-01T20:29:51.280Z,49.67
2022-11-01T20:32:55.005Z,50.33
2022-11-01T20:36:00.801Z,48.05
2022-11-01T20:39:04.609Z,51.55
2022-11-01T20:42:09.619Z,49.63
2022-11-01T20:45:13.921Z,49.45
2022-11-01T20:48:19.505Z,51.55
2022-11-01T20:51:29.918Z,50.58
2022-11-01T20:54:34.631Z,48.17
2022-11-01T20:57:38.916Z,49.50
2022-11-01T21:00:44.267Z,49.95
2022-11-01T21:03:50.334Z,53.28
2022-11-01T21:06:55.576Z,53.13
2022-11-01T21:09:59.062Z,52.78
2022-11-01T21:13:04.597Z,56.00
2022-11-01T21:16:17.911Z,56.25
2022-11-01T21:19:23.052Z,56.35
2022-11-01T21:22:28.906Z,58.25
2022-11-01T21:25:35.434Z,62.25
2022-11-01T21:28:43.556Z,62.83
2022-11-01T21:31:48.286Z,61.88
2022-11-01T21:34:52.994Z,64.30
2022-11-01T21:37:58.394Z,62.63
2022-11-01T21:41:06.637Z,61.97
2022-11-01T21:44:29.462Z,64.68
2022-11-01T21:47:34.320Z,66.57
2022-11-01T21:50:38.310Z,64.65
2022-11-01T21:53:43.116Z,64.72
2022-11-01T21:56:46.553Z,64.05
2022-11-01T21:59:51.967Z,67.95
2022-11-01T22:02:55.361Z,70.60
2022-11-01T22:06:00.131Z,65.70
2022-11-01T22:09:06.217Z,69.10
2022-11-01T22:12:09.878Z,66.55
2022-11-01T22:15:14.186Z,68.65
2022-11-01T22:18:24.767Z,69.00
2022-11-01T22:21:29.014Z,69.07
2022-11-01T22:24:33.809Z,71.43
2022-11-01T22:27:37.521Z,69.68
2022-11-01T22:30:40.793Z,68.10
2022-11-01T22:33:48.158Z,64.90
2022-11-01T22:36:53.374Z,67.85
2022-11-01T22:39:58.084Z,70.68
2022-11-01T22:43:01.735Z,67.75
2022-11-01T22:46:10.128Z,67.38
2022-11-01T22:49:17.889Z,70.70
2022-11-01T22:52:29.744Z,70.43
2022-11-01T22:55:44.031Z,67.80
2022-11-01T22:58:47.625Z,68.80
2022-11-01T23:01:53.285Z,67.07
2022-11-01T23:05:03.897Z,68.07
2022-11-01T23:08:17.243Z,67.07
2022-11-01T23:11:45.790Z,68.68
2022-11-01T23:14:48.353Z,71.95
2022-11-01T23:17:51.789Z,71.00
2022-11-01T23:20:59.132Z,71.57
2022-11-01T23:24:03.086Z,71.13
2022-11-01T23:27:08.106Z,69.90
2022-11-01T23:30:12.696Z,68.57
2022-11-01T23:33:17.871Z,67.70
2022-11-01T23:36:25.987Z,68.18
2022-11-01T23:39:35.832Z,67.97
2022-11-01T23:42:40.821Z,72.28
2022-11-01T23:45:44.279Z,71.50
2022-11-01T23:48:48.210Z,70.60
2022-11-01T23:51:52.145Z,69.75
2022-11-01T23:54:55.713Z,70.38
2022-11-01T23:58:03.143Z,69.47
